Deming Municipal Airport
KDMN : rendu visible

Aérodrome :











RETROUVEZ-NOUS SUR...

 
LOGIN :

S'inscrire | Disclaimer

   EN    FR    IT 

 









Légende :    VFR   VFR Marginal   IFR   IFR Intensif   IFR Très Intensif
Visi : 
Plafond : 
>= 8 km
>= 3000ft
5 à 8 km
1000 à 3000 ft
1500m à 5 km
500 à 1000 ft
800 à 1500m
200 à 500 ft
< 800m
< 200 ft
Symboles :   Orages  Brouillard  Fortes neiges  Fortes précipitations  Vent > 20 kt






- Altitude de l'aérodrome : 4314 ft


KDMN - Deming Municipal

DERNIER METAR :
  • 222353Z AUTO 25009KT 10SM FEW050 11/01 A3011 RMK AO2 SLP169 T01110011 10133 20111 53004

METARs EXPIRÉS :
  • 222253Z AUTO 25012G18KT 10SM SCT050 12/01 A3009 RMK AO2 SLP163 T01220011
  • 222153Z AUTO 25010G17KT 10SM BKN050 13/02 A3009 RMK AO2 SLP164 T01280017

TAF KDMN
Valide du 23 à 00h jusqu'au 24 à 00h UTC


222320Z 2300/2324 27008KT P6SM FEW090
FM231300 34005KT P6SM FEW080
FM232200 09005KT P6SM SCT250



MET'MAP, la Météo Aéronautique d'un coup d'oeil ! - Copyright ORBIFLY Décembre 2007 - Disclaimer

ORBIFLY MET'MAP TEAM :

Programmation & Développement : Alexandra Zaïnal
Conception & Développement : Baudouin d'Aumeries
Co-Programmation & Développement : Marc-Olivier Méhu
Soutien technique & logistique : Manuel Goepfert

Contact : metmap@orbifly.com




SOURCES & CREDITS :

   NOAA       Earth
Advisory